sensor_id;sensor_type;location;lat;lon;timestamp;pressure;altitude;pressure_sealevel;temperature
73673;BMP280;61972;19.480;-99.240;2023-04-25T00:00:10;77305.31;;;30.70
73673;BMP280;61972;19.480;-99.240;2023-04-25T00:02:37;77307.41;;;30.70
73673;BMP280;61972;19.480;-99.240;2023-04-25T00:05:03;77310.06;;;30.70
73673;BMP280;61972;19.480;-99.240;2023-04-25T00:07:30;77311.63;;;30.69
73673;BMP280;61972;19.480;-99.240;2023-04-25T00:09:58;77314.78;;;30.69
73673;BMP280;61972;19.480;-99.240;2023-04-25T00:12:24;77317.97;;;30.70
73673;BMP280;61972;19.480;-99.240;2023-04-25T00:14:50;77321.59;;;30.68
73673;BMP280;61972;19.480;-99.240;2023-04-25T00:17:16;77323.69;;;30.68
73673;BMP280;61972;19.480;-99.240;2023-04-25T00:19:43;77320.50;;;30.67
73673;BMP280;61972;19.480;-99.240;2023-04-25T00:22:10;77330.50;;;30.67
73673;BMP280;61972;19.480;-99.240;2023-04-25T00:24:37;77317.22;;;30.64
73673;BMP280;61972;19.480;-99.240;2023-04-25T00:27:03;77328.88;;;30.65
73673;BMP280;61972;19.480;-99.240;2023-04-25T00:29:29;77325.13;;;30.64
73673;BMP280;61972;19.480;-99.240;2023-04-25T00:31:56;77334.03;;;30.63
73673;BMP280;61972;19.480;-99.240;2023-04-25T00:34:22;77341.41;;;30.62
73673;BMP280;61972;19.480;-99.240;2023-04-25T00:36:48;77337.09;;;30.61
73673;BMP280;61972;19.480;-99.240;2023-04-25T00:39:14;77341.84;;;30.60
73673;BMP280;61972;19.480;-99.240;2023-04-25T00:41:40;77338.09;;;30.59
73673;BMP280;61972;19.480;-99.240;2023-04-25T00:44:08;77341.19;;;30.57
73673;BMP280;61972;19.480;-99.240;2023-04-25T00:46:37;77341.19;;;30.57
73673;BMP280;61972;19.480;-99.240;2023-04-25T00:49:04;77345.34;;;30.56
73673;BMP280;61972;19.480;-99.240;2023-04-25T00:51:30;77349.50;;;30.55
73673;BMP280;61972;19.480;-99.240;2023-04-25T00:53:58;77343.16;;;30.54
73673;BMP280;61972;19.480;-99.240;2023-04-25T00:56:25;77351.50;;;30.52
73673;BMP280;61972;19.480;-99.240;2023-04-25T00:58:53;77355.69;;;30.51
73673;BMP280;61972;19.480;-99.240;2023-04-25T01:01:22;77364.00;;;30.49
73673;BMP280;61972;19.480;-99.240;2023-04-25T01:03:49;77366.66;;;30.49
73673;BMP280;61972;19.480;-99.240;2023-04-25T01:06:16;77362.94;;;30.48
73673;BMP280;61972;19.480;-99.240;2023-04-25T01:08:43;77366.00;;;30.46
73673;BMP280;61972;19.480;-99.240;2023-04-25T01:11:09;77367.53;;;30.45
73673;BMP280;61972;19.480;-99.240;2023-04-25T01:13:35;77374.34;;;30.44
73673;BMP280;61972;19.480;-99.240;2023-04-25T01:16:02;77378.53;;;30.43
73673;BMP280;61972;19.480;-99.240;2023-04-25T01:18:28;77385.31;;;30.42
73673;BMP280;61972;19.480;-99.240;2023-04-25T01:20:55;77385.91;;;30.42
73673;BMP280;61972;19.480;-99.240;2023-04-25T01:23:22;77385.22;;;30.39
73673;BMP280;61972;19.480;-99.240;2023-04-25T01:25:49;77389.94;;;30.39
73673;BMP280;61972;19.480;-99.240;2023-04-25T01:28:15;77400.50;;;30.39
73673;BMP280;61972;19.480;-99.240;2023-04-25T01:30:42;77402.47;;;30.35
73673;BMP280;61972;19.480;-99.240;2023-04-25T01:33:09;77405.66;;;30.36
73673;BMP280;61972;19.480;-99.240;2023-04-25T01:35:36;77410.91;;;30.36
73673;BMP280;61972;19.480;-99.240;2023-04-25T01:38:02;77417.84;;;30.38
73673;BMP280;61972;19.480;-99.240;2023-04-25T01:40:28;77422.69;;;30.40
73673;BMP280;61972;19.480;-99.240;2023-04-25T01:42:55;77421.81;;;30.44
73673;BMP280;61972;19.480;-99.240;2023-04-25T01:45:21;77422.03;;;30.49
73673;BMP280;61972;19.480;-99.240;2023-04-25T01:47:47;77425.47;;;30.54
73673;BMP280;61972;19.480;-99.240;2023-04-25T01:50:16;77428.88;;;30.60
73673;BMP280;61972;19.480;-99.240;2023-04-25T01:52:46;77425.44;;;30.67
73673;BMP280;61972;19.480;-99.240;2023-04-25T01:55:13;77439.50;;;30.75
73673;BMP280;61972;19.480;-99.240;2023-04-25T01:57:39;77436.69;;;30.82
73673;BMP280;61972;19.480;-99.240;2023-04-25T02:00:06;77439.66;;;30.90
73673;BMP280;61972;19.480;-99.240;2023-04-25T02:02:32;77442.06;;;30.97
73673;BMP280;61972;19.480;-99.240;2023-04-25T02:04:59;77453.50;;;31.05
73673;BMP280;61972;19.480;-99.240;2023-04-25T02:07:26;77449.09;;;31.13
73673;BMP280;61972;19.480;-99.240;2023-04-25T02:09:52;77440.41;;;31.20
73673;BMP280;61972;19.480;-99.240;2023-04-25T02:12:18;77452.25;;;31.26
73673;BMP280;61972;19.480;-99.240;2023-04-25T02:14:45;77443.03;;;31.32
73673;BMP280;61972;19.480;-99.240;2023-04-25T02:17:11;77449.06;;;31.38
73673;BMP280;61972;19.480;-99.240;2023-04-25T02:19:38;77449.31;;;31.43
73673;BMP280;61972;19.480;-99.240;2023-04-25T02:22:04;77451.03;;;31.47
73673;BMP280;61972;19.480;-99.240;2023-04-25T02:24:30;77455.44;;;31.51
73673;BMP280;61972;19.480;-99.240;2023-04-25T02:26:57;77460.94;;;31.57
73673;BMP280;61972;19.480;-99.240;2023-04-25T02:29:23;77465.88;;;31.61
73673;BMP280;61972;19.480;-99.240;2023-04-25T02:31:49;77467.63;;;31.65
73673;BMP280;61972;19.480;-99.240;2023-04-25T02:34:15;77472.56;;;31.70
73673;BMP280;61972;19.480;-99.240;2023-04-25T02:36:41;77476.97;;;31.74
73673;BMP280;61972;19.480;-99.240;2023-04-25T02:39:08;77480.91;;;31.80
73673;BMP280;61972;19.480;-99.240;2023-04-25T02:41:34;77493.78;;;31.85
73673;BMP280;61972;19.480;-99.240;2023-04-25T02:44:00;77497.63;;;31.88
73673;BMP280;61972;19.480;-99.240;2023-04-25T02:46:26;77497.19;;;31.90
73673;BMP280;61972;19.480;-99.240;2023-04-25T02:48:52;77500.50;;;31.94
73673;BMP280;61972;19.480;-99.240;2023-04-25T02:51:18;77500.06;;;31.96
73673;BMP280;61972;19.480;-99.240;2023-04-25T02:53:44;77501.69;;;31.97
73673;BMP280;61972;19.480;-99.240;2023-04-25T02:56:10;77500.69;;;31.99
73673;BMP280;61972;19.480;-99.240;2023-04-25T02:58:36;77511.91;;;32.02
73673;BMP280;61972;19.480;-99.240;2023-04-25T03:01:03;77514.66;;;32.04
73673;BMP280;61972;19.480;-99.240;2023-04-25T03:03:29;77516.84;;;32.06
73673;BMP280;61972;19.480;-99.240;2023-04-25T03:05:55;77519.63;;;32.09
73673;BMP280;61972;19.480;-99.240;2023-04-25T03:08:21;77520.72;;;32.10
73673;BMP280;61972;19.480;-99.240;2023-04-25T03:10:48;77525.00;;;32.12
73673;BMP280;61972;19.480;-99.240;2023-04-25T03:13:15;77520.81;;;32.13
73673;BMP280;61972;19.480;-99.240;2023-04-25T03:15:41;77529.84;;;32.14
73673;BMP280;61972;19.480;-99.240;2023-04-25T03:18:07;77525.66;;;32.15
73673;BMP280;61972;19.480;-99.240;2023-04-25T03:20:34;77526.19;;;32.15
73673;BMP280;61972;19.480;-99.240;2023-04-25T03:23:00;77529.94;;;32.16
73673;BMP280;61972;19.480;-99.240;2023-04-25T03:25:26;77527.28;;;32.16
73673;BMP280;61972;19.480;-99.240;2023-04-25T03:27:52;77535.78;;;32.17
73673;BMP280;61972;19.480;-99.240;2023-04-25T03:30:18;77534.78;;;32.18
73673;BMP280;61972;19.480;-99.240;2023-04-25T03:32:44;77542.16;;;32.18
73673;BMP280;61972;19.480;-99.240;2023-04-25T03:35:10;77543.72;;;32.17
73673;BMP280;61972;19.480;-99.240;2023-04-25T03:37:36;77540.09;;;32.18
73673;BMP280;61972;19.480;-99.240;2023-04-25T03:40:03;77544.25;;;32.17
73673;BMP280;61972;19.480;-99.240;2023-04-25T03:42:30;77538.97;;;32.17
73673;BMP280;61972;19.480;-99.240;2023-04-25T03:44:56;77556.38;;;32.16
73673;BMP280;61972;19.480;-99.240;2023-04-25T03:47:22;77550.00;;;32.15
73673;BMP280;61972;19.480;-99.240;2023-04-25T03:49:51;77563.22;;;32.15
73673;BMP280;61972;19.480;-99.240;2023-04-25T03:52:18;77564.75;;;32.14
73673;BMP280;61972;19.480;-99.240;2023-04-25T03:54:44;77571.56;;;32.13
73673;BMP280;61972;19.480;-99.240;2023-04-25T03:57:16;77577.31;;;32.11
73673;BMP280;61972;19.480;-99.240;2023-04-25T03:59:45;77583.06;;;32.09
73673;BMP280;61972;19.480;-99.240;2023-04-25T04:05:27;77592.97;;;32.06
73673;BMP280;61972;19.480;-99.240;2023-04-25T04:07:57;77597.06;;;32.02
73673;BMP280;61972;19.480;-99.240;2023-04-25T04:10:23;77600.69;;;32.01
73673;BMP280;61972;19.480;-99.240;2023-04-25T04:13:00;77603.25;;;31.98
73673;BMP280;61972;19.480;-99.240;2023-04-25T04:15:45;77607.41;;;31.97
73673;BMP280;61972;19.480;-99.240;2023-04-25T04:18:11;77603.13;;;31.96
73673;BMP280;61972;19.480;-99.240;2023-04-25T04:20:38;77603.56;;;31.94
73673;BMP280;61972;19.480;-99.240;2023-04-25T04:23:04;77607.75;;;31.93
73673;BMP280;61972;19.480;-99.240;2023-04-25T04:25:31;77606.09;;;31.91
73673;BMP280;61972;19.480;-99.240;2023-04-25T04:28:00;77614.00;;;31.91
73673;BMP280;61972;19.480;-99.240;2023-04-25T04:30:27;77604.44;;;31.89
73673;BMP280;61972;19.480;-99.240;2023-04-25T04:32:57;77613.91;;;31.88
73673;BMP280;61972;19.480;-99.240;2023-04-25T04:35:23;77606.44;;;31.86
73673;BMP280;61972;19.480;-99.240;2023-04-25T04:37:50;77603.25;;;31.86
73673;BMP280;61972;19.480;-99.240;2023-04-25T04:40:43;77609.50;;;31.84
73673;BMP280;61972;19.480;-99.240;2023-04-25T04:43:09;77612.16;;;31.84
73673;BMP280;61972;19.480;-99.240;2023-04-25T04:45:36;77611.06;;;31.83
73673;BMP280;61972;19.480;-99.240;2023-04-25T04:48:05;77608.41;;;31.83
73673;BMP280;61972;19.480;-99.240;2023-04-25T04:50:34;77613.72;;;31.83
73673;BMP280;61972;19.480;-99.240;2023-04-25T04:53:04;77612.06;;;31.82
73673;BMP280;61972;19.480;-99.240;2023-04-25T04:55:39;77608.88;;;31.81
73673;BMP280;61972;19.480;-99.240;2023-04-25T04:58:07;77618.88;;;31.81
73673;BMP280;61972;19.480;-99.240;2023-04-25T05:03:25;77606.09;;;31.79
73673;BMP280;61972;19.480;-99.240;2023-04-25T05:05:52;77604.44;;;31.77
73673;BMP280;61972;19.480;-99.240;2023-04-25T05:08:24;77611.84;;;31.77
73673;BMP280;61972;19.480;-99.240;2023-04-25T05:17:03;77615.00;;;31.77
73673;BMP280;61972;19.480;-99.240;2023-04-25T05:20:01;77629.34;;;31.78
73673;BMP280;61972;19.480;-99.240;2023-04-25T05:22:31;77628.22;;;31.77
73673;BMP280;61972;19.480;-99.240;2023-04-25T05:25:17;77636.69;;;31.78
73673;BMP280;61972;19.480;-99.240;2023-04-25T05:33:44;77622.72;;;31.72
73673;BMP280;61972;19.480;-99.240;2023-04-25T05:36:22;77633.75;;;31.70
73673;BMP280;61972;19.480;-99.240;2023-04-25T05:38:49;77623.19;;;31.70
73673;BMP280;61972;19.480;-99.240;2023-04-25T05:41:15;77623.06;;;31.67
73673;BMP280;61972;19.480;-99.240;2023-04-25T05:43:53;77621.41;;;31.66
73673;BMP280;61972;19.480;-99.240;2023-04-25T05:48:59;77621.41;;;31.66
73673;BMP280;61972;19.480;-99.240;2023-04-25T05:51:25;77620.31;;;31.65
73673;BMP280;61972;19.480;-99.240;2023-04-25T05:53:51;77613.38;;;31.63
73673;BMP280;61972;19.480;-99.240;2023-04-25T05:56:17;77611.72;;;31.62
73673;BMP280;61972;19.480;-99.240;2023-04-25T05:58:46;77607.97;;;31.61
73673;BMP280;61972;19.480;-99.240;2023-04-25T06:01:12;77613.69;;;31.59
73673;BMP280;61972;19.480;-99.240;2023-04-25T06:03:39;77603.13;;;31.59
73673;BMP280;61972;19.480;-99.240;2023-04-25T06:06:09;77606.22;;;31.57
73673;BMP280;61972;19.480;-99.240;2023-04-25T06:08:35;77615.69;;;31.56
73673;BMP280;61972;19.480;-99.240;2023-04-25T06:11:02;77611.94;;;31.55
73673;BMP280;61972;19.480;-99.240;2023-04-25T06:13:28;77607.09;;;31.52
73673;BMP280;61972;19.480;-99.240;2023-04-25T06:15:54;77605.44;;;31.51
73673;BMP280;61972;19.480;-99.240;2023-04-25T06:18:20;77604.88;;;31.50
73673;BMP280;61972;19.480;-99.240;2023-04-25T06:20:49;77598.50;;;31.49
73673;BMP280;61972;19.480;-99.240;2023-04-25T06:23:16;77604.22;;;31.47
73673;BMP280;61972;19.480;-99.240;2023-04-25T06:25:42;77600.06;;;31.48
73673;BMP280;61972;19.480;-99.240;2023-04-25T06:28:13;77610.16;;;31.50
73673;BMP280;61972;19.480;-99.240;2023-04-25T06:30:46;77604.56;;;31.55
73673;BMP280;61972;19.480;-99.240;2023-04-25T06:33:16;77600.03;;;31.61
73673;BMP280;61972;19.480;-99.240;2023-04-25T06:35:42;77599.72;;;31.65
73673;BMP280;61972;19.480;-99.240;2023-04-25T06:38:08;77600.50;;;31.71
73673;BMP280;61972;19.480;-99.240;2023-04-25T06:40:34;77596.53;;;31.77
73673;BMP280;61972;19.480;-99.240;2023-04-25T06:43:01;77602.56;;;31.83
73673;BMP280;61972;19.480;-99.240;2023-04-25T06:45:30;77600.16;;;31.88
73673;BMP280;61972;19.480;-99.240;2023-04-25T06:47:58;77603.56;;;31.94
73673;BMP280;61972;19.480;-99.240;2023-04-25T06:50:25;77603.78;;;31.99
73673;BMP280;61972;19.480;-99.240;2023-04-25T06:52:52;77598.16;;;32.03
73673;BMP280;61972;19.480;-99.240;2023-04-25T06:55:19;77591.44;;;32.07
73673;BMP280;61972;19.480;-99.240;2023-04-25T06:57:45;77590.53;;;32.11
73673;BMP280;61972;19.480;-99.240;2023-04-25T07:00:12;77589.66;;;32.15
73673;BMP280;61972;19.480;-99.240;2023-04-25T07:02:38;77582.91;;;32.19
73673;BMP280;61972;19.480;-99.240;2023-04-25T07:05:19;77586.78;;;32.22
73673;BMP280;61972;19.480;-99.240;2023-04-25T07:07:51;77587.53;;;32.28
73673;BMP280;61972;19.480;-99.240;2023-04-25T07:10:17;77580.81;;;32.32
73673;BMP280;61972;19.480;-99.240;2023-04-25T07:12:43;77581.47;;;32.35
73673;BMP280;61972;19.480;-99.240;2023-04-25T07:15:10;77582.75;;;32.41
73673;BMP280;61972;19.480;-99.240;2023-04-25T07:17:46;77578.13;;;32.44
73673;BMP280;61972;19.480;-99.240;2023-04-25T07:20:19;77576.69;;;32.47
73673;BMP280;61972;19.480;-99.240;2023-04-25T07:22:49;77570.50;;;32.52
73673;BMP280;61972;19.480;-99.240;2023-04-25T07:25:31;77576.91;;;32.53
73673;BMP280;61972;19.480;-99.240;2023-04-25T07:27:57;77571.25;;;32.57
73673;BMP280;61972;19.480;-99.240;2023-04-25T07:30:23;77569.25;;;32.60
73673;BMP280;61972;19.480;-99.240;2023-04-25T07:33:05;77563.53;;;32.62
73673;BMP280;61972;19.480;-99.240;2023-04-25T07:35:31;77558.84;;;32.65
73673;BMP280;61972;19.480;-99.240;2023-04-25T07:37:57;77556.31;;;32.68
73673;BMP280;61972;19.480;-99.240;2023-04-25T07:40:24;77555.88;;;32.70
73673;BMP280;61972;19.480;-99.240;2023-04-25T07:42:50;77552.22;;;32.72
73673;BMP280;61972;19.480;-99.240;2023-04-25T07:45:16;77552.31;;;32.74
73673;BMP280;61972;19.480;-99.240;2023-04-25T07:51:04;77552.41;;;32.77
73673;BMP280;61972;19.480;-99.240;2023-04-25T07:53:33;77551.44;;;32.78
73673;BMP280;61972;19.480;-99.240;2023-04-25T07:56:04;77558.38;;;32.80
73673;BMP280;61972;19.480;-99.240;2023-04-25T07:58:30;77559.47;;;32.81
73673;BMP280;61972;19.480;-99.240;2023-04-25T08:00:56;77557.91;;;32.82
73673;BMP280;61972;19.480;-99.240;2023-04-25T08:03:22;77555.25;;;32.82
73673;BMP280;61972;19.480;-99.240;2023-04-25T08:05:49;77553.72;;;32.83
73673;BMP280;61972;19.480;-99.240;2023-04-25T08:08:15;77550.06;;;32.84
73673;BMP280;61972;19.480;-99.240;2023-04-25T08:10:41;77547.41;;;32.84
73673;BMP280;61972;19.480;-99.240;2023-04-25T08:13:07;77547.97;;;32.85
73673;BMP280;61972;19.480;-99.240;2023-04-25T08:15:33;77545.34;;;32.85
73673;BMP280;61972;19.480;-99.240;2023-04-25T08:18:00;77547.97;;;32.85
73673;BMP280;61972;19.480;-99.240;2023-04-25T08:20:28;77550.63;;;32.85
73673;BMP280;61972;19.480;-99.240;2023-04-25T08:22:55;77550.63;;;32.85
73673;BMP280;61972;19.480;-99.240;2023-04-25T08:25:24;77549.09;;;32.86
73673;BMP280;61972;19.480;-99.240;2023-04-25T08:27:50;77542.69;;;32.85
73673;BMP280;61972;19.480;-99.240;2023-04-25T08:30:17;77541.16;;;32.86
73673;BMP280;61972;19.480;-99.240;2023-04-25T08:32:46;77539.03;;;32.86
73673;BMP280;61972;19.480;-99.240;2023-04-25T08:35:12;77534.28;;;32.87
73673;BMP280;61972;19.480;-99.240;2023-04-25T08:37:38;77534.84;;;32.87
73673;BMP280;61972;19.480;-99.240;2023-04-25T08:40:05;77534.28;;;32.87
73673;BMP280;61972;19.480;-99.240;2023-04-25T08:42:33;77530.66;;;32.88
73673;BMP280;61972;19.480;-99.240;2023-04-25T08:45:02;77529.00;;;32.87
73673;BMP280;61972;19.480;-99.240;2023-04-25T08:47:30;77529.53;;;32.87
73673;BMP280;61972;19.480;-99.240;2023-04-25T08:50:01;77534.28;;;32.87
73673;BMP280;61972;19.480;-99.240;2023-04-25T08:52:32;77539.03;;;32.86
73673;BMP280;61972;19.480;-99.240;2023-04-25T08:55:01;77531.09;;;32.86
73673;BMP280;61972;19.480;-99.240;2023-04-25T08:57:29;77517.31;;;32.86
73673;BMP280;61972;19.480;-99.240;2023-04-25T08:59:57;77526.34;;;32.87
73673;BMP280;61972;19.480;-99.240;2023-04-25T09:02:24;77519.97;;;32.86
73673;BMP280;61972;19.480;-99.240;2023-04-25T09:04:50;77512.03;;;32.86
73673;BMP280;61972;19.480;-99.240;2023-04-25T09:07:17;77518.94;;;32.87
73673;BMP280;61972;19.480;-99.240;2023-04-25T09:09:46;77523.69;;;32.87
73673;BMP280;61972;19.480;-99.240;2023-04-25T09:12:23;77524.81;;;32.88
73673;BMP280;61972;19.480;-99.240;2023-04-25T09:15:09;77528.44;;;32.86
73673;BMP280;61972;19.480;-99.240;2023-04-25T09:17:36;77525.72;;;32.84
73673;BMP280;61972;19.480;-99.240;2023-04-25T09:20:10;77533.34;;;32.76
73673;BMP280;61972;19.480;-99.240;2023-04-25T09:22:37;77529.88;;;32.68
73673;BMP280;61972;19.480;-99.240;2023-04-25T09:25:10;77524.72;;;32.58
73673;BMP280;61972;19.480;-99.240;2023-04-25T09:27:49;77517.94;;;32.47
73673;BMP280;61972;19.480;-99.240;2023-04-25T09:30:16;77521.81;;;32.38
73673;BMP280;61972;19.480;-99.240;2023-04-25T09:32:43;77517.13;;;32.26
73673;BMP280;61972;19.480;-99.240;2023-04-25T09:35:10;77516.72;;;32.16
73673;BMP280;61972;19.480;-99.240;2023-04-25T09:37:37;77516.31;;;32.06
73673;BMP280;61972;19.480;-99.240;2023-04-25T09:40:06;77515.91;;;31.96
73673;BMP280;61972;19.480;-99.240;2023-04-25T09:42:33;77506.00;;;31.86
73673;BMP280;61972;19.480;-99.240;2023-04-25T09:45:01;77511.97;;;31.77
73673;BMP280;61972;19.480;-99.240;2023-04-25T09:47:28;77512.66;;;31.68
73673;BMP280;61972;19.480;-99.240;2023-04-25T09:49:54;77510.13;;;31.58
73673;BMP280;61972;19.480;-99.240;2023-04-25T09:52:23;77508.69;;;31.49
73673;BMP280;61972;19.480;-99.240;2023-04-25T09:54:50;77514.66;;;31.40
73673;BMP280;61972;19.480;-99.240;2023-04-25T09:57:22;77516.84;;;31.30
73673;BMP280;61972;19.480;-99.240;2023-04-25T09:59:53;77514.88;;;31.21
73673;BMP280;61972;19.480;-99.240;2023-04-25T10:02:22;77515.09;;;31.13
73673;BMP280;61972;19.480;-99.240;2023-04-25T10:04:50;77513.75;;;31.07
73673;BMP280;61972;19.480;-99.240;2023-04-25T10:07:19;77513.88;;;30.98
73673;BMP280;61972;19.480;-99.240;2023-04-25T10:09:50;77516.16;;;30.90
73673;BMP280;61972;19.480;-99.240;2023-04-25T10:12:19;77520.09;;;30.84
73673;BMP280;61972;19.480;-99.240;2023-04-25T10:14:45;77515.59;;;30.77
73673;BMP280;61972;19.480;-99.240;2023-04-25T10:17:12;77517.34;;;30.69
73673;BMP280;61972;19.480;-99.240;2023-04-25T10:19:39;77511.31;;;30.63
73673;BMP280;61972;19.480;-99.240;2023-04-25T10:24:38;77510.25;;;30.52
73673;BMP280;61972;19.480;-99.240;2023-04-25T10:27:05;77523.22;;;30.47
73673;BMP280;61972;19.480;-99.240;2023-04-25T10:29:35;77519.78;;;30.42
73673;BMP280;61972;19.480;-99.240;2023-04-25T10:32:02;77522.22;;;30.37
73673;BMP280;61972;19.480;-99.240;2023-04-25T10:34:54;77521.97;;;30.31
73673;BMP280;61972;19.480;-99.240;2023-04-25T10:37:20;77524.91;;;30.27
73673;BMP280;61972;19.480;-99.240;2023-04-25T10:39:47;77529.41;;;30.21
73673;BMP280;61972;19.480;-99.240;2023-04-25T10:42:13;77524.97;;;30.17
73673;BMP280;61972;19.480;-99.240;2023-04-25T10:44:39;77524.88;;;30.14
73673;BMP280;61972;19.480;-99.240;2023-04-25T10:47:07;77525.19;;;30.10
73673;BMP280;61972;19.480;-99.240;2023-04-25T10:49:37;77534.50;;;30.06
73673;BMP280;61972;19.480;-99.240;2023-04-25T10:52:26;77544.81;;;30.01
73673;BMP280;61972;19.480;-99.240;2023-04-25T10:54:55;77541.50;;;29.98
73673;BMP280;61972;19.480;-99.240;2023-04-25T10:59:59;77542.66;;;29.89
73673;BMP280;61972;19.480;-99.240;2023-04-25T11:02:29;77548.78;;;29.85
73673;BMP280;61972;19.480;-99.240;2023-04-25T11:04:55;77551.28;;;29.83
73673;BMP280;61972;19.480;-99.240;2023-04-25T11:07:33;77546.31;;;29.78
73673;BMP280;61972;19.480;-99.240;2023-04-25T11:10:05;77546.19;;;29.75
73673;BMP280;61972;19.480;-99.240;2023-04-25T11:12:34;77552.88;;;29.72
73673;BMP280;61972;19.480;-99.240;2023-04-25T11:15:05;77556.91;;;29.68
73673;BMP280;61972;19.480;-99.240;2023-04-25T11:17:32;77553.59;;;29.65
73673;BMP280;61972;19.480;-99.240;2023-04-25T11:19:59;77554.56;;;29.64
73673;BMP280;61972;19.480;-99.240;2023-04-25T11:22:27;77551.28;;;29.61
73673;BMP280;61972;19.480;-99.240;2023-04-25T11:24:53;77549.50;;;29.56
73673;BMP280;61972;19.480;-99.240;2023-04-25T11:27:21;77558.91;;;29.55
73673;BMP280;61972;19.480;-99.240;2023-04-25T11:29:47;77555.06;;;29.52
73673;BMP280;61972;19.480;-99.240;2023-04-25T11:32:15;77558.13;;;29.50
73673;BMP280;61972;19.480;-99.240;2023-04-25T11:34:43;77555.34;;;29.47
73673;BMP280;61972;19.480;-99.240;2023-04-25T11:37:10;77555.22;;;29.45
73673;BMP280;61972;19.480;-99.240;2023-04-25T11:39:43;77552.47;;;29.42
73673;BMP280;61972;19.480;-99.240;2023-04-25T11:42:10;77556.50;;;29.38
73673;BMP280;61972;19.480;-99.240;2023-04-25T11:44:38;77559.53;;;29.36
73673;BMP280;61972;19.480;-99.240;2023-04-25T11:47:05;77566.22;;;29.33
73673;BMP280;61972;19.480;-99.240;2023-04-25T11:49:31;77565.13;;;29.32
73673;BMP280;61972;19.480;-99.240;2023-04-25T11:51:58;77561.81;;;29.29
73673;BMP280;61972;19.480;-99.240;2023-04-25T11:54:24;77554.34;;;29.27
73673;BMP280;61972;19.480;-99.240;2023-04-25T11:56:50;77553.66;;;29.24
73673;BMP280;61972;19.480;-99.240;2023-04-25T11:59:16;77559.31;;;29.21
73673;BMP280;61972;19.480;-99.240;2023-04-25T12:01:49;77560.72;;;29.18
73673;BMP280;61972;19.480;-99.240;2023-04-25T12:04:21;77563.78;;;29.16
73673;BMP280;61972;19.480;-99.240;2023-04-25T12:06:48;77565.31;;;29.15
73673;BMP280;61972;19.480;-99.240;2023-04-25T12:09:20;77570.44;;;29.12
73673;BMP280;61972;19.480;-99.240;2023-04-25T12:11:52;77574.59;;;29.11
73673;BMP280;61972;19.480;-99.240;2023-04-25T12:14:23;77572.38;;;29.09
73673;BMP280;61972;19.480;-99.240;2023-04-25T12:16:51;77572.25;;;29.07
73673;BMP280;61972;19.480;-99.240;2023-04-25T12:19:19;77580.56;;;29.05
73673;BMP280;61972;19.480;-99.240;2023-04-25T12:21:46;77584.72;;;29.03
73673;BMP280;61972;19.480;-99.240;2023-04-25T12:24:26;77589.84;;;29.01
73673;BMP280;61972;19.480;-99.240;2023-04-25T12:27:01;77585.59;;;28.99
73673;BMP280;61972;19.480;-99.240;2023-04-25T12:29:30;77592.91;;;28.99
73673;BMP280;61972;19.480;-99.240;2023-04-25T12:31:56;77594.44;;;28.98
73673;BMP280;61972;19.480;-99.240;2023-04-25T12:34:23;77601.78;;;28.97
73673;BMP280;61972;19.480;-99.240;2023-04-25T12:36:50;77598.44;;;28.94
73673;BMP280;61972;19.480;-99.240;2023-04-25T12:39:17;77597.34;;;28.93
73673;BMP280;61972;19.480;-99.240;2023-04-25T12:41:45;77591.94;;;28.91
73673;BMP280;61972;19.480;-99.240;2023-04-25T12:44:12;77598.75;;;28.90
73673;BMP280;61972;19.480;-99.240;2023-04-25T12:46:39;77591.81;;;28.88
73673;BMP280;61972;19.480;-99.240;2023-04-25T12:49:07;77600.69;;;28.87
73673;BMP280;61972;19.480;-99.240;2023-04-25T12:51:36;77592.09;;;28.83
73673;BMP280;61972;19.480;-99.240;2023-04-25T12:54:04;77597.38;;;28.83
73673;BMP280;61972;19.480;-99.240;2023-04-25T12:56:31;77595.16;;;28.81
73673;BMP280;61972;19.480;-99.240;2023-04-25T12:58:57;77598.75;;;28.80
73673;BMP280;61972;19.480;-99.240;2023-04-25T13:01:24;77597.09;;;28.78
73673;BMP280;61972;19.480;-99.240;2023-04-25T13:03:51;77605.41;;;28.76
73673;BMP280;61972;19.480;-99.240;2023-04-25T13:06:18;77599.03;;;28.75
73673;BMP280;61972;19.480;-99.240;2023-04-25T13:08:45;77599.44;;;28.73
73673;BMP280;61972;19.480;-99.240;2023-04-25T13:11:11;77608.34;;;28.72
73673;BMP280;61972;19.480;-99.240;2023-04-25T13:13:38;77606.66;;;28.70
73673;BMP280;61972;19.480;-99.240;2023-04-25T13:16:06;77605.00;;;28.69
73673;BMP280;61972;19.480;-99.240;2023-04-25T13:18:33;77605.97;;;28.67
73673;BMP280;61972;19.480;-99.240;2023-04-25T13:20:59;77609.56;;;28.66
73673;BMP280;61972;19.480;-99.240;2023-04-25T13:23:27;77619.94;;;28.63
73673;BMP280;61972;19.480;-99.240;2023-04-25T13:25:54;77622.03;;;28.62
73673;BMP280;61972;19.480;-99.240;2023-04-25T13:28:21;77623.56;;;28.61
73673;BMP280;61972;19.480;-99.240;2023-04-25T13:30:47;77625.63;;;28.61
73673;BMP280;61972;19.480;-99.240;2023-04-25T13:33:14;77628.66;;;28.59
73673;BMP280;61972;19.480;-99.240;2023-04-25T13:35:41;77633.94;;;28.59
73673;BMP280;61972;19.480;-99.240;2023-04-25T13:38:13;77628.66;;;28.59
73673;BMP280;61972;19.480;-99.240;2023-04-25T13:40:40;77631.69;;;28.57
73673;BMP280;61972;19.480;-99.240;2023-04-25T13:43:09;77625.34;;;28.56
73673;BMP280;61972;19.480;-99.240;2023-04-25T13:45:36;77628.94;;;28.54
73673;BMP280;61972;19.480;-99.240;2023-04-25T13:48:02;77633.09;;;28.53
73673;BMP280;61972;19.480;-99.240;2023-04-25T13:50:28;77637.25;;;28.52
73673;BMP280;61972;19.480;-99.240;2023-04-25T13:52:54;77631.88;;;28.50
73673;BMP280;61972;19.480;-99.240;2023-04-25T13:55:20;77636.53;;;28.49
73673;BMP280;61972;19.480;-99.240;2023-04-25T13:57:47;77643.88;;;28.49
73673;BMP280;61972;19.480;-99.240;2023-04-25T14:00:13;77648.59;;;28.48
73673;BMP280;61972;19.480;-99.240;2023-04-25T14:02:39;77638.50;;;28.46
73673;BMP280;61972;19.480;-99.240;2023-04-25T14:05:06;77641.13;;;28.46
73673;BMP280;61972;19.480;-99.240;2023-04-25T14:07:34;77642.06;;;28.44
73673;BMP280;61972;19.480;-99.240;2023-04-25T14:10:00;77648.88;;;28.43
73673;BMP280;61972;19.480;-99.240;2023-04-25T14:12:27;77638.91;;;28.44
73673;BMP280;61972;19.480;-99.240;2023-04-25T14:15:32;77643.59;;;28.43
73673;BMP280;61972;19.480;-99.240;2023-04-25T14:17:59;77640.97;;;28.43